aviador You're here:

UBBG Decoded Metar

GYANDZHA in RUSSIA
Report Time2017-12-16 16:30:00
UTC Time2017-12-16 16:44:54
Flight Rules mvfr MVFR
Wind200° at 06 kt
W.Decomp.*RWY 12: 1.5 kt HW 5.8 kt RCW
W.Rank200° ranks 17
Current wind is above 200° avg. (5.6)
Visibility5000 m
Phenomena:Mist
Clouds:Few 100 Hf
Expected CloudBase > 800 ft AGL from Temp-Dew spread
CeilingNone
Temp02°C (ISA -11)
Dew Point00°C (87% RH)
AAT-2.1°C
QNH1025 hPa
Density Alt-554 ft
Elevation1,083 ft
Report Wrong Elevation
Raw Report
UBBG 161630Z 20006KT 5000 BR FEW100 02/M00 Q1025 R30/CLRD//
NOSIG=

Extra information for UBBG:More info

Metar Taf Metar & Taf Last 4 Metars F.Rules Stats Wind Profile Meteogram Temp Stats Airport Information Weather charts Add Link Nearby VenuesMetar ALERT Operation Metar Decoded Social comments